createdAt,value
2023-03-16T00:00:47.554Z,94.30
2023-03-16T00:03:20.429Z,95.30
2023-03-16T00:05:55.937Z,96.90
2023-03-16T00:08:22.930Z,97.40
2023-03-16T00:10:49.934Z,97.00
2023-03-16T00:13:17.191Z,98.70
2023-03-16T00:15:54.691Z,97.40
2023-03-16T00:18:23.610Z,96.90
2023-03-16T00:20:54.064Z,96.90
2023-03-16T00:23:27.471Z,96.90
2023-03-16T00:25:59.208Z,98.10
2023-03-16T00:28:26.971Z,98.00
2023-03-16T00:30:58.965Z,98.50
2023-03-16T00:33:26.082Z,99.10
2023-03-16T00:36:02.225Z,98.90
2023-03-16T00:38:35.847Z,98.50
2023-03-16T00:41:05.496Z,98.10
2023-03-16T00:43:41.368Z,98.70
2023-03-16T00:46:15.612Z,97.30
2023-03-16T00:48:43.634Z,96.80
2023-03-16T00:51:12.961Z,99.90
2023-03-16T00:53:41.272Z,97.80
2023-03-16T00:56:08.666Z,99.20
2023-03-16T00:58:38.729Z,99.40
2023-03-16T01:01:07.144Z,98.40
2023-03-16T01:03:34.059Z,99.20
2023-03-16T01:06:05.847Z,99.30
2023-03-16T01:08:33.185Z,99.10
2023-03-16T01:11:07.433Z,99.90
2023-03-16T01:13:34.112Z,99.90
2023-03-16T01:16:00.797Z,99.90
2023-03-16T01:18:27.891Z,99.90
2023-03-16T01:20:54.513Z,98.40
2023-03-16T01:23:21.291Z,99.90
2023-03-16T01:25:54.451Z,98.90
2023-03-16T01:28:21.745Z,99.00
2023-03-16T01:30:48.871Z,99.90
2023-03-16T01:33:15.524Z,99.70
2023-03-16T01:35:42.307Z,99.90
2023-03-16T01:38:08.964Z,99.90
2023-03-16T01:40:38.424Z,99.90
2023-03-16T01:43:07.646Z,99.90
2023-03-16T01:45:53.223Z,99.90
2023-03-16T01:48:23.610Z,99.60
2023-03-16T01:50:52.554Z,99.90
2023-03-16T01:53:21.459Z,99.90
2023-03-16T01:55:48.546Z,99.90
2023-03-16T01:58:15.194Z,99.90
2023-03-16T02:00:42.309Z,99.90
2023-03-16T02:03:13.901Z,99.90
2023-03-16T02:05:42.430Z,99.90
2023-03-16T02:08:09.669Z,99.50
2023-03-16T02:10:36.747Z,99.90
2023-03-16T02:13:03.715Z,99.90
2023-03-16T02:15:30.857Z,99.10
2023-03-16T02:18:00.686Z,99.20
2023-03-16T02:20:36.576Z,99.60
2023-03-16T02:23:04.179Z,99.80
2023-03-16T02:25:41.929Z,99.90
2023-03-16T02:28:11.131Z,99.90
2023-03-16T02:30:37.784Z,99.90
2023-03-16T02:33:05.338Z,99.90
2023-03-16T02:35:33.770Z,99.90
2023-03-16T02:38:00.637Z,99.90
2023-03-16T02:40:31.441Z,99.90
2023-03-16T02:43:02.908Z,99.90
2023-03-16T02:45:44.708Z,99.90
2023-03-16T02:48:15.064Z,99.90
2023-03-16T02:50:47.087Z,99.90
2023-03-16T02:53:14.095Z,99.90
2023-03-16T02:55:43.379Z,99.90
2023-03-16T02:58:11.149Z,99.90
2023-03-16T03:00:38.436Z,99.90
2023-03-16T03:03:06.042Z,99.90
2023-03-16T03:05:32.741Z,99.90
2023-03-16T03:07:59.511Z,99.90
2023-03-16T03:10:26.501Z,99.90
2023-03-16T03:12:54.789Z,99.90
2023-03-16T03:15:21.900Z,99.90
2023-03-16T03:17:48.756Z,99.90
2023-03-16T03:20:18.570Z,99.90
2023-03-16T03:22:48.591Z,99.90
2023-03-16T03:25:15.729Z,99.90
2023-03-16T03:27:42.749Z,99.90
2023-03-16T03:30:12.960Z,99.90
2023-03-16T03:32:40.134Z,99.90
2023-03-16T03:35:07.101Z,99.90
2023-03-16T03:37:35.412Z,99.90
2023-03-16T03:40:10.980Z,99.90
2023-03-16T03:42:38.153Z,99.90
2023-03-16T03:45:05.258Z,99.90
2023-03-16T03:47:32.008Z,99.90
2023-03-16T03:49:58.662Z,99.90
2023-03-16T03:52:25.348Z,99.90
2023-03-16T03:54:54.979Z,99.90
2023-03-16T03:57:22.084Z,99.90
2023-03-16T03:59:49.837Z,99.90
2023-03-16T04:02:16.646Z,99.90
2023-03-16T04:04:43.967Z,99.90
2023-03-16T04:07:12.165Z,99.90
2023-03-16T04:09:39.461Z,99.90
2023-03-16T04:12:07.499Z,99.90
2023-03-16T04:14:35.918Z,99.90
2023-03-16T04:17:05.048Z,99.90
2023-03-16T04:19:32.539Z,99.90
2023-03-16T04:22:00.186Z,99.90
2023-03-16T04:24:26.880Z,99.90
2023-03-16T04:26:54.490Z,99.90
2023-03-16T04:29:21.708Z,99.90
2023-03-16T04:31:48.556Z,99.90
2023-03-16T04:34:15.332Z,99.90
2023-03-16T04:36:42.236Z,99.90
2023-03-16T04:39:09.821Z,99.90
2023-03-16T04:41:36.481Z,99.90
2023-03-16T04:44:05.104Z,99.90
2023-03-16T04:46:32.328Z,99.90
2023-03-16T04:48:59.216Z,99.90
2023-03-16T04:51:26.231Z,99.90
2023-03-16T04:53:53.474Z,99.90
2023-03-16T04:56:20.364Z,99.90
2023-03-16T04:58:47.398Z,99.90
2023-03-16T05:01:14.451Z,99.90
2023-03-16T05:03:43.643Z,99.90
2023-03-16T05:06:10.684Z,99.90
2023-03-16T05:08:37.948Z,99.90
2023-03-16T05:11:04.983Z,99.90
2023-03-16T05:13:31.690Z,99.90
2023-03-16T05:15:59.604Z,99.90
2023-03-16T05:18:27.406Z,99.90
2023-03-16T05:20:56.518Z,99.90
2023-03-16T05:23:25.770Z,99.90
2023-03-16T05:25:54.087Z,99.90
2023-03-16T05:28:23.374Z,99.90
2023-03-16T05:30:50.223Z,99.90
2023-03-16T05:33:17.776Z,99.90
2023-03-16T05:35:44.479Z,99.90
2023-03-16T05:38:11.295Z,99.90
2023-03-16T05:40:39.852Z,99.90
2023-03-16T05:43:06.457Z,99.90
2023-03-16T05:45:33.680Z,99.90
2023-03-16T05:48:01.004Z,99.90
2023-03-16T05:50:28.633Z,99.90
2023-03-16T05:52:56.030Z,99.90
2023-03-16T05:55:23.977Z,99.90
2023-03-16T05:57:52.297Z,99.90
2023-03-16T06:00:19.319Z,99.90
2023-03-16T06:02:49.220Z,99.90
2023-03-16T06:05:16.760Z,99.90
2023-03-16T06:07:43.607Z,99.90
2023-03-16T06:10:14.535Z,99.60
2023-03-16T06:12:41.651Z,99.60
2023-03-16T06:15:11.161Z,98.90
2023-03-16T06:17:38.181Z,96.90
2023-03-16T06:20:10.818Z,96.30
2023-03-16T06:22:39.149Z,96.20
2023-03-16T06:25:06.392Z,96.90
2023-03-16T06:27:33.184Z,94.00
2023-03-16T06:30:00.036Z,94.00
2023-03-16T06:32:26.751Z,94.50
2023-03-16T06:34:54.592Z,92.40
2023-03-16T06:37:21.813Z,91.10
2023-03-16T06:39:49.678Z,92.30
2023-03-16T06:42:17.403Z,93.10
2023-03-16T06:44:44.876Z,91.50
2023-03-16T06:47:15.809Z,91.50
2023-03-16T06:49:45.089Z,91.40
2023-03-16T06:52:13.740Z,90.70
2023-03-16T06:54:41.842Z,89.60
2023-03-16T06:57:10.467Z,88.10
2023-03-16T06:59:38.608Z,90.20
2023-03-16T07:02:06.821Z,88.00
2023-03-16T07:04:34.181Z,87.80
2023-03-16T07:07:04.027Z,87.60
2023-03-16T07:09:31.889Z,81.70
2023-03-16T07:11:58.629Z,83.70
2023-03-16T07:14:27.196Z,85.80
2023-03-16T07:16:53.966Z,83.50
2023-03-16T07:19:24.512Z,82.10
2023-03-16T07:21:51.735Z,80.00
2023-03-16T07:24:19.558Z,82.60
2023-03-16T07:26:46.622Z,81.40
2023-03-16T07:29:13.982Z,80.20
2023-03-16T07:31:41.728Z,78.60
2023-03-16T07:34:09.041Z,77.20
2023-03-16T07:36:36.233Z,77.40
2023-03-16T07:39:03.352Z,76.50
2023-03-16T07:41:32.618Z,73.20
2023-03-16T07:44:00.316Z,72.30
2023-03-16T07:46:27.158Z,71.30
2023-03-16T07:48:53.810Z,69.80
2023-03-16T07:51:21.444Z,70.60
2023-03-16T07:53:49.543Z,70.60
2023-03-16T07:56:16.279Z,66.20
2023-03-16T07:58:44.046Z,67.00
2023-03-16T08:01:12.612Z,65.80
2023-03-16T08:03:39.444Z,64.50
2023-03-16T08:06:06.383Z,67.00
2023-03-16T08:08:33.434Z,67.60
2023-03-16T08:11:00.624Z,63.40
2023-03-16T08:13:27.335Z,64.00
2023-03-16T08:15:58.612Z,63.70
2023-03-16T08:18:26.037Z,65.70
2023-03-16T08:20:57.074Z,63.10
2023-03-16T08:23:26.244Z,65.90
2023-03-16T08:25:56.333Z,67.30
2023-03-16T08:28:23.564Z,64.10
2023-03-16T08:30:51.279Z,62.00
2023-03-16T08:33:20.245Z,66.80
2023-03-16T08:35:48.866Z,67.50
2023-03-16T08:38:16.128Z,70.60
2023-03-16T08:40:47.646Z,67.60
2023-03-16T08:43:17.257Z,67.60
2023-03-16T08:45:52.254Z,68.40
2023-03-16T08:48:20.486Z,65.60
2023-03-16T08:50:47.178Z,65.40
2023-03-16T08:53:16.536Z,68.80
2023-03-16T08:55:47.927Z,68.10
2023-03-16T08:58:15.383Z,67.30
2023-03-16T09:00:43.878Z,68.30
2023-03-16T09:03:12.270Z,61.40
2023-03-16T09:05:40.851Z,61.70
2023-03-16T09:08:08.841Z,63.20
2023-03-16T09:10:36.499Z,65.70
2023-03-16T09:13:07.738Z,65.00
2023-03-16T09:15:37.364Z,66.00
2023-03-16T09:18:04.280Z,65.30
2023-03-16T09:20:35.017Z,66.60
2023-03-16T09:23:04.921Z,62.30
2023-03-16T09:25:35.337Z,65.20
2023-03-16T09:28:03.572Z,64.30
2023-03-16T09:30:33.458Z,63.00
2023-03-16T09:33:01.325Z,61.20
2023-03-16T09:35:28.388Z,59.90
2023-03-16T09:38:06.228Z,60.60
2023-03-16T09:40:33.770Z,61.00
2023-03-16T09:43:22.822Z,59.80
2023-03-16T09:45:53.061Z,61.50
2023-03-16T09:48:21.303Z,58.20
2023-03-16T09:50:50.018Z,61.40
2023-03-16T09:53:24.237Z,59.60
2023-03-16T09:55:54.316Z,60.60
2023-03-16T09:58:21.304Z,55.40
2023-03-16T10:00:53.062Z,59.70
2023-03-16T10:03:35.928Z,55.80
2023-03-16T10:06:04.489Z,56.50
2023-03-16T10:08:34.262Z,58.40
2023-03-16T10:11:13.755Z,59.40
2023-03-16T10:13:43.866Z,55.90
2023-03-16T10:16:33.075Z,58.50
2023-03-16T10:19:28.810Z,58.20
2023-03-16T10:21:57.039Z,56.40
2023-03-16T10:24:44.439Z,55.70
2023-03-16T10:27:14.997Z,55.90
2023-03-16T10:29:41.625Z,55.30
2023-03-16T10:32:19.369Z,55.90
2023-03-16T10:34:53.057Z,56.40
2023-03-16T10:37:21.461Z,55.60
2023-03-16T10:39:49.549Z,55.60
2023-03-16T10:42:17.634Z,55.80
2023-03-16T10:44:45.083Z,56.10
2023-03-16T10:47:19.017Z,55.50
2023-03-16T10:49:50.251Z,55.20
2023-03-16T10:52:30.058Z,58.00
2023-03-16T10:55:01.823Z,57.10
2023-03-16T10:57:34.898Z,54.80
2023-03-16T11:00:13.885Z,56.90
2023-03-16T11:02:40.829Z,55.50
2023-03-16T11:05:20.085Z,55.00
2023-03-16T11:07:58.833Z,54.00
2023-03-16T11:10:28.540Z,55.20
2023-03-16T11:12:58.725Z,55.10
2023-03-16T11:15:28.665Z,54.50
2023-03-16T11:17:55.360Z,55.70
2023-03-16T11:20:23.440Z,55.10
2023-03-16T11:22:51.160Z,55.70
2023-03-16T11:25:26.923Z,55.50
2023-03-16T11:28:08.887Z,56.20
2023-03-16T11:30:55.403Z,53.80
2023-03-16T11:33:25.013Z,56.70
2023-03-16T11:35:59.281Z,54.70
2023-03-16T11:38:50.954Z,56.90
2023-03-16T11:41:23.821Z,57.10
2023-03-16T11:43:54.876Z,54.00
2023-03-16T11:46:34.400Z,53.90
2023-03-16T11:49:02.008Z,54.70
2023-03-16T11:51:47.777Z,54.60
2023-03-16T11:54:14.980Z,53.50
2023-03-16T11:56:46.437Z,54.10
2023-03-16T11:59:14.383Z,54.20
2023-03-16T12:02:00.076Z,55.20
2023-03-16T12:04:42.081Z,54.10
2023-03-16T12:07:09.778Z,56.00
2023-03-16T12:10:06.659Z,52.20
2023-03-16T12:12:40.390Z,53.50
2023-03-16T12:15:14.172Z,55.00
2023-03-16T12:17:41.191Z,53.40
2023-03-16T12:20:18.136Z,55.30
2023-03-16T12:23:12.011Z,53.90
2023-03-16T12:25:40.806Z,53.60
2023-03-16T12:28:16.425Z,56.40
2023-03-16T12:31:03.631Z,56.20
2023-03-16T12:33:40.790Z,55.00
2023-03-16T12:36:10.670Z,53.40
2023-03-16T12:41:49.001Z,54.80
2023-03-16T12:44:50.248Z,54.60
2023-03-16T12:47:24.147Z,54.80
2023-03-16T12:49:53.440Z,54.30
2023-03-16T12:52:20.938Z,51.40
2023-03-16T12:54:52.302Z,53.80
2023-03-16T12:57:22.982Z,54.20
2023-03-16T12:59:53.002Z,53.70
2023-03-16T13:02:33.032Z,54.60
2023-03-16T13:05:01.143Z,55.40
2023-03-16T13:07:28.579Z,54.30
2023-03-16T13:10:00.517Z,54.50
2023-03-16T13:12:28.711Z,52.60
2023-03-16T13:14:55.949Z,54.70
2023-03-16T13:17:24.622Z,55.60
2023-03-16T13:20:02.144Z,53.50
2023-03-16T13:22:33.666Z,54.30
2023-03-16T13:25:00.808Z,54.20
2023-03-16T13:27:28.602Z,53.40
2023-03-16T13:29:59.136Z,55.00
2023-03-16T13:32:29.640Z,55.60
2023-03-16T13:35:00.424Z,55.70
2023-03-16T13:37:29.605Z,55.60
2023-03-16T13:40:00.359Z,56.60
2023-03-16T13:42:31.912Z,57.50
2023-03-16T13:44:58.886Z,57.40
2023-03-16T13:47:29.458Z,57.80
2023-03-16T13:49:59.679Z,54.50
2023-03-16T13:52:32.690Z,56.20
2023-03-16T13:55:06.904Z,57.10
2023-03-16T13:57:36.837Z,56.60
2023-03-16T14:00:03.775Z,57.40
2023-03-16T14:02:31.143Z,57.80
2023-03-16T14:04:57.784Z,56.30
2023-03-16T14:07:27.892Z,55.50
2023-03-16T14:09:59.066Z,55.80
2023-03-16T14:12:26.481Z,56.30
2023-03-16T14:14:55.724Z,52.00
2023-03-16T14:17:22.511Z,53.70
2023-03-16T14:19:51.627Z,53.40
2023-03-16T14:22:21.418Z,53.40
2023-03-16T14:24:53.769Z,55.70
2023-03-16T14:27:22.471Z,54.00
2023-03-16T14:29:55.257Z,53.90
2023-03-16T14:32:33.696Z,54.80
2023-03-16T14:35:13.285Z,54.70
2023-03-16T14:37:40.534Z,54.50
2023-03-16T14:40:28.631Z,52.80
2023-03-16T14:42:55.782Z,51.50
2023-03-16T14:45:23.996Z,52.00
2023-03-16T14:48:01.092Z,55.10
2023-03-16T14:50:30.209Z,54.70
2023-03-16T14:52:57.510Z,54.40
2023-03-16T19:41:18.642Z,64.50
2023-03-16T19:46:33.474Z,66.30
2023-03-16T19:49:12.423Z,67.70
2023-03-16T19:51:43.184Z,66.10
2023-03-16T19:54:42.612Z,65.80
2023-03-16T19:59:58.516Z,67.10
2023-03-16T20:02:35.832Z,66.60
2023-03-16T20:05:04.960Z,66.40
2023-03-16T20:13:16.784Z,67.00
2023-03-16T20:18:32.046Z,66.10
2023-03-16T20:21:00.680Z,66.00
2023-03-16T20:23:38.472Z,65.80
2023-03-16T20:26:08.203Z,65.80
2023-03-16T20:34:05.899Z,66.90
2023-03-16T20:36:44.025Z,66.20
2023-03-16T20:39:13.957Z,67.00
2023-03-16T20:41:59.961Z,66.50
2023-03-16T20:44:34.202Z,66.60
2023-03-16T20:47:01.921Z,67.00
2023-03-16T20:52:31.554Z,66.50
2023-03-16T20:57:43.741Z,67.00
2023-03-16T21:03:18.137Z,68.30
2023-03-16T21:05:46.452Z,68.20
2023-03-16T21:08:15.825Z,68.80
2023-03-16T21:10:44.437Z,68.80
2023-03-16T21:13:18.554Z,68.40
2023-03-16T21:15:47.452Z,67.70
2023-03-16T21:18:23.333Z,68.30
2023-03-16T21:20:55.696Z,68.50
2023-03-16T21:23:23.021Z,68.70
2023-03-16T21:26:00.625Z,68.70
2023-03-16T21:28:30.626Z,68.70
2023-03-16T21:31:03.229Z,69.50
2023-03-16T21:33:41.800Z,69.60
2023-03-16T21:36:20.691Z,68.70
2023-03-16T21:38:55.607Z,68.60
2023-03-16T21:41:23.922Z,67.70
2023-03-16T21:46:56.283Z,67.70
2023-03-16T21:49:30.181Z,67.00
2023-03-16T21:52:04.181Z,66.80
2023-03-16T21:54:37.103Z,66.90
2023-03-16T21:57:13.620Z,66.50
2023-03-16T21:59:51.616Z,66.60
2023-03-16T22:02:39.847Z,66.20
2023-03-16T22:05:27.208Z,65.80
2023-03-16T22:07:59.745Z,66.10
2023-03-16T22:10:32.196Z,65.90
2023-03-16T22:13:00.340Z,65.90
2023-03-16T22:15:32.638Z,66.30
2023-03-16T22:18:24.299Z,67.20
2023-03-16T22:20:55.782Z,67.50
2023-03-16T22:23:35.203Z,66.60
2023-03-16T22:26:07.732Z,66.70
2023-03-16T22:28:35.482Z,66.70
2023-03-16T22:31:03.199Z,66.60
2023-03-16T22:33:30.661Z,68.10
2023-03-16T22:36:00.455Z,68.40
2023-03-16T22:38:29.719Z,67.60
2023-03-16T22:40:58.667Z,65.80
2023-03-16T22:43:33.448Z,65.40
2023-03-16T22:46:00.294Z,65.10
2023-03-16T22:48:35.821Z,64.90
2023-03-16T22:51:07.206Z,64.80
2023-03-16T22:53:47.123Z,65.10
2023-03-16T22:56:14.794Z,65.20
2023-03-16T22:58:58.057Z,65.10
2023-03-16T23:01:33.633Z,65.10
2023-03-16T23:04:09.642Z,64.90
2023-03-16T23:06:36.730Z,65.10
2023-03-16T23:09:03.642Z,65.60
2023-03-16T23:11:32.519Z,66.10
2023-03-16T23:13:59.748Z,65.90
2023-03-16T23:16:35.921Z,65.90
2023-03-16T23:19:18.723Z,66.10
2023-03-16T23:21:50.768Z,67.40
2023-03-16T23:24:22.764Z,66.70
2023-03-16T23:26:50.636Z,66.30
2023-03-16T23:29:17.331Z,66.40
2023-03-16T23:31:45.110Z,66.60
2023-03-16T23:34:12.520Z,66.80
2023-03-16T23:36:46.893Z,67.00
2023-03-16T23:39:22.808Z,67.20
2023-03-16T23:41:49.896Z,67.30
2023-03-16T23:44:17.650Z,67.60
2023-03-16T23:46:44.734Z,67.50
2023-03-16T23:49:16.231Z,67.90
2023-03-16T23:51:42.891Z,68.10
2023-03-16T23:54:26.134Z,68.10
2023-03-16T23:56:54.188Z,68.70
2023-03-16T23:59:21.646Z,68.90
